WetterOnline ( https://www.wetteronline.de )

Wetter aktuell Bietigheim-Bissingen

Aktuelles Wetter: Schnarrenberg/Stuttgart (315m)

6-stündlich | Neueste Meldungen
Ortszeit Temperatur Wetter
Sa, 29.01. 13:00 5.9° C bedeckt
Sa, 29.01. 7:00 1.1° C bedeckt
Sa, 29.01. 1:00 2.7° C bedeckt
Fr, 28.01. 19:00 3.5° C bedeckt
Fr, 28.01. 13:00 5.2° C bewölkt
Fr, 28.01. 7:00 2.2° C wolkenlos
Fr, 28.01. 1:00 3.1° C bewölkt
Do, 27.01. 19:00 3.1° C leichter Regen
Ortszeit Temperatur Wetter
Sa, 29.01. 14:00 6.2° C bewölkt
Sa, 29.01. 13:50 6.2° C bewölkt
Sa, 29.01. 13:40 6.4° C Sprühregen
Sa, 29.01. 13:30 6.1° C bedeckt
Sa, 29.01. 13:20 6.1° C bedeckt
Sa, 29.01. 13:10 6.1° C Sprühregen
Sa, 29.01. 13:00 5.9° C bedeckt
Sa, 29.01. 12:30 5.7° C bedeckt
Sa, 29.01. 12:00 6.0° C bewölkt
Sa, 29.01. 11:30 5.6° C bedeckt
Sa, 29.01. 11:00 4.9° C bedeckt
Ortszeit Relative Feuchte Sichtweite
Sa, 29.01. 13:00 72% >70 km
Sa, 29.01. 7:00 88% 17 km
Sa, 29.01. 1:00 74% 45 km
Fr, 28.01. 19:00 73% 35 km
Fr, 28.01. 13:00 65% 55 km
Fr, 28.01. 7:00 85% 30 km
Fr, 28.01. 1:00 85% 30 km
Do, 27.01. 19:00 90% 2.9 km
Ortszeit Relative Feuchte Sichtweite
Sa, 29.01. 14:00 75% 45 km
Sa, 29.01. 13:50 75% -
Sa, 29.01. 13:40 75% -
Sa, 29.01. 13:30 73% >70 km
Sa, 29.01. 13:20 73% -
Sa, 29.01. 13:10 73% -
Sa, 29.01. 13:00 72% >70 km
Sa, 29.01. 12:30 72% >70 km
Sa, 29.01. 12:00 68% 45 km
Sa, 29.01. 11:30 68% 60 km
Sa, 29.01. 11:00 67% 60 km
Ortszeit Niederschlagsmenge Niederschlagsart
Sa, 29.01. 13:00 0.0 l/m2 in 6 Std. -
Sa, 29.01. 7:00 0.0 l/m2 in 12 Std. -
Sa, 29.01. 1:00 0.0 l/m2 in 6 Std. -
Fr, 28.01. 19:00 0.1 l/m2 in 12 Std. -
Fr, 28.01. 13:00 0.1 l/m2 in 6 Std. Regen
Fr, 28.01. 7:00 4 l/m2 in 12 Std. -
Fr, 28.01. 1:00 4 l/m2 in 6 Std. Regen
Do, 27.01. 19:00 0.5 l/m2 in 12 Std. Regen
Ortszeit Niederschlagsmenge Niederschlagsart
Sa, 29.01. 14:00 0.1 l/m2 in 1 Std. Sprühregen
Sa, 29.01. 13:50 keine Meldung -
Sa, 29.01. 13:40 keine Meldung -
Sa, 29.01. 13:30 0.1 l/m2 in 1 Std. Schnee
Sa, 29.01. 13:20 keine Meldung -
Sa, 29.01. 13:10 keine Meldung -
Sa, 29.01. 13:00 0.0 l/m2 in 1 Std. -
Sa, 29.01. 12:30 0.0 l/m2 in 1 Std. -
Sa, 29.01. 12:00 0.0 l/m2 in 1 Std. -
Sa, 29.01. 11:30 0.0 l/m2 in 1 Std. -
Sa, 29.01. 11:00 0.0 l/m2 in 1 Std. -
Ortszeit Stärke Spitze Richtung
km/h Bft. km/h Grad Sektor
Sa, 29.01. 13:00 13 3 37 230° SW
Sa, 29.01. 7:00 11 2 18 290° W
Sa, 29.01. 1:00 9 2 24 240° SW
Fr, 28.01. 19:00 14 3 47 270° W
Fr, 28.01. 13:00 25 4 43 300° NW
Fr, 28.01. 7:00 18 3 43 280° W
Fr, 28.01. 1:00 14 3 47 280° W
Do, 27.01. 19:00 6 1 22 220° SW
Ortszeit Stärke Spitze Richtung
km/h Bft. km/h Grad Sektor
Sa, 29.01. 14:00 11 2 22 220° SW
Sa, 29.01. 13:50 11 2 - 220° SW
Sa, 29.01. 13:40 9 2 - 230° SW
Sa, 29.01. 13:30 11 2 22 240° SW
Sa, 29.01. 13:20 11 2 - 240° SW
Sa, 29.01. 13:10 7 2 - 230° SW
Sa, 29.01. 13:00 13 3 37 230° SW
Sa, 29.01. 12:30 14 3 36 250° W
Sa, 29.01. 12:00 13 3 26 250° W
Sa, 29.01. 11:30 11 2 22 250° W
Sa, 29.01. 11:00 7 2 22 220° SW
Ortszeit Untergrenze Bedeckung Gattung
total tief tief mittel hoch
Sa, 29.01. 13:00 540 m 8/8 8/8 - - -
Sa, 29.01. 7:00 2700 m 8/8 8/8 - - -
Sa, 29.01. 1:00 2400 m 8/8 8/8 - - -
Fr, 28.01. 19:00 1260 m 8/8 8/8 - - -
Fr, 28.01. 13:00 870 m 7/8 7/8 - - -
Fr, 28.01. 7:00 - 0/8 0/8 - - -
Fr, 28.01. 1:00 390 m 7/8 7/8 - - -
Do, 27.01. 19:00 480 m 8/8 8/8 - - -
Ortszeit Bedeckungsgrad in Achtel und Wolkenuntergrenze
Sa, 29.01. 14:00 7(570m) 7(930m)
Sa, 29.01. 13:50 7(570m) 7(930m)
Sa, 29.01. 13:40 7
Sa, 29.01. 13:30 8(540m)
Sa, 29.01. 13:20 8(540m)
Sa, 29.01. 13:10 8
Sa, 29.01. 13:00 8(540m)
Sa, 29.01. 12:30 8(540m)
Sa, 29.01. 12:00 7(570m) 7(690m)
Sa, 29.01. 11:30 7(600m) 8(990m)
Sa, 29.01. 11:00 8(570m)
Ortszeit Luftdruck NN (hPa) Tendenz (hPa in 3 Std.)
Sa, 29.01. 13:00 1030 - 1,2
Sa, 29.01. 7:00 1033 - 0,9
Sa, 29.01. 1:00 1036 - 1,6
Fr, 28.01. 19:00 1037 + 1,0
Fr, 28.01. 13:00 1036 + 0,1
Fr, 28.01. 7:00 1033 + 1,5
Fr, 28.01. 1:00 1031 + 2,1
Do, 27.01. 19:00 1028 + 0,2
Ortszeit Luftdruck NN (hPa) Tendenz (hPa in 3 Std.)
Sa, 29.01. 14:00 1029 - 1,7
Sa, 29.01. 13:50 1029 keine Meldung
Sa, 29.01. 13:40 1030 keine Meldung
Sa, 29.01. 13:30 1030 - 1,2
Sa, 29.01. 13:20 1030 keine Meldung
Sa, 29.01. 13:10 1030 keine Meldung
Sa, 29.01. 13:00 1030 - 1,2
Sa, 29.01. 12:30 1031 - 1,0
Sa, 29.01. 12:00 1031 - 1,2
Sa, 29.01. 11:30 1031 - 1,2
Sa, 29.01. 11:00 1031 - 1,3
Ortszeit Schneehöhe (cm)
Sa, 29.01. 13:00 0
Sa, 29.01. 7:00 0
Sa, 29.01. 1:00 0
Fr, 28.01. 19:00 0
Fr, 28.01. 13:00 0
Fr, 28.01. 7:00 0
Fr, 28.01. 1:00 0
Do, 27.01. 19:00 0
Ortszeit Schneehöhe (cm)
Sa, 29.01. 14:00 0
Sa, 29.01. 13:50 0
Sa, 29.01. 13:40 0
Sa, 29.01. 13:30 0
Sa, 29.01. 13:20 0
Sa, 29.01. 13:10 0
Sa, 29.01. 13:00 0
Sa, 29.01. 12:30 0
Sa, 29.01. 12:00 0
Sa, 29.01. 11:30 0
Sa, 29.01. 11:00 0
Link zu dieser Seite / Seite empfehlen

Das Wetter in ...